Time;durP1;ratioP1;P1;durP2;ratioP2;P2;SDS_P1;SDS_P2;PMS_P1;PMS_P2;Temp;Humidity;BMP_temperature;BMP_pressure;BME280_temperature;BME280_humidity;BME280_pressure;Samples;Min_cycle;Max_cycle;Signal;HPM_P1;HPM_P2
2022/08/02 00:00:57;;;;;;;;;;;;;;;22.87;100.00;96527.03;5109208;28;19955;-46
2022/08/02 00:03:25;;;;;;;;;;;;;;;22.86;100.00;96522.69;5106756;28;19986;-49
2022/08/02 00:05:53;;;;;;;;;;;;;;;22.91;100.00;96523.66;5109500;27;20352;-47
2022/08/02 00:08:23;;;;;;;;;;;;;;;22.09;100.00;96522.78;5109101;28;19962;-46
2022/08/02 00:10:51;;;;;;;;;;;;;;;22.41;100.00;96526.34;5107388;28;19967;-56
2022/08/02 00:13:19;;;;;;;;;;;;;;;22.26;100.00;96521.28;5108002;28;19967;-46
2022/08/02 00:15:47;;;;;;;;;;;;;;;22.59;100.00;96524.78;5100546;27;19966;-55
2022/08/02 00:18:15;;;;;;;;;;;;;;;22.60;100.00;96523.72;5110657;27;19974;-46
2022/08/02 00:20:43;;;;;;;;;;;;;;;22.02;100.00;96527.38;5107358;27;19967;-48
2022/08/02 00:23:11;;;;;;;;;;;;;;;22.03;100.00;96532.56;5103633;28;20059;-46
2022/08/02 00:25:41;;;;;;;;;;;;;;;22.22;100.00;96535.34;5106755;28;20220;-49
2022/08/02 00:28:22;;;;;;;;;;;;;;;21.72;100.00;96541.38;5100969;28;19958;-57
2022/08/02 00:30:55;;;;;;;;;;;;;;;21.58;100.00;96545.16;5107587;28;19975;-47
2022/08/02 00:33:23;;;;;;;;;;;;;;;21.10;100.00;96553.50;5103189;28;19965;-46
2022/08/02 00:36:11;;;;;;;;;;;;;;;21.39;100.00;96546.84;5104641;28;19974;-48
2022/08/02 00:38:39;;;;;;;;;;;;;;;21.56;100.00;96553.41;5102059;28;20048;-49
2022/08/02 00:41:12;;;;;;;;;;;;;;;21.43;100.00;96549.94;5105964;28;19983;-52
2022/08/02 00:43:40;;;;;;;;;;;;;;;21.75;100.00;96551.69;5102831;28;19958;-48
2022/08/02 00:46:09;;;;;;;;;;;;;;;21.88;100.00;96550.78;5107784;28;19974;-46
2022/08/02 00:48:37;;;;;;;;;;;;;;;21.83;100.00;96544.44;5105020;28;19951;-54
2022/08/02 00:51:10;;;;;;;;;;;;;;;21.97;100.00;96546.84;5107427;28;19970;-50
2022/08/02 00:53:38;;;;;;;;;;;;;;;21.99;100.00;96560.06;5106737;28;19959;-46
2022/08/02 00:56:06;;;;;;;;;;;;;;;21.84;100.00;96563.00;5095462;28;19955;-49
2022/08/02 00:58:36;;;;;;;;;;;;;;;21.92;100.00;96573.50;5106967;28;20016;-46
2022/08/02 01:01:04;;;;;;;;;;;;;;;21.99;100.00;96563.56;5102966;28;19986;-49
2022/08/02 01:03:32;;;;;;;;;;;;;;;21.86;100.00;96568.16;5104655;28;19974;-50
2022/08/02 01:06:00;;;;;;;;;;;;;;;21.82;100.00;96581.19;5100805;28;19954;-53
2022/08/02 01:08:43;;;;;;;;;;;;;;;22.19;100.00;96563.47;5105439;28;19958;-46
2022/08/02 01:11:11;;;;;;;;;;;;;;;22.16;100.00;96568.44;5098431;28;19951;-46
2022/08/02 01:13:41;;;;;;;;;;;;;;;21.96;100.00;96561.31;5105074;28;19993;-49
2022/08/02 01:16:13;;;;;;;;;;;;;;;22.35;100.00;96553.25;5107035;28;20386;-49
2022/08/02 01:18:44;;;;;;;;;;;;;;;22.42;100.00;96543.28;5108444;27;19974;-52
2022/08/02 01:21:14;;;;;;;;;;;;;;;22.28;100.00;96539.88;5107430;28;19955;-48
2022/08/02 01:23:45;;;;;;;;;;;;;;;22.30;100.00;96545.88;5097456;27;20380;-53
2022/08/02 01:26:18;;;;;;;;;;;;;;;22.54;100.00;96541.56;5106920;28;19966;-46
2022/08/02 01:28:49;;;;;;;;;;;;;;;22.55;100.00;96539.69;5106392;28;19963;-49
2022/08/02 01:31:19;;;;;;;;;;;;;;;22.49;100.00;96547.56;5105705;28;20438;-54
2022/08/02 01:33:48;;;;;;;;;;;;;;;21.85;100.00;96553.06;5107870;28;19966;-49
2022/08/02 01:36:17;;;;;;;;;;;;;;;21.81;100.00;96550.81;5103551;28;20397;-51
2022/08/02 01:38:47;;;;;;;;;;;;;;;22.09;100.00;96540.78;5102482;28;19951;-49
2022/08/02 01:41:15;;;;;;;;;;;;;;;22.09;100.00;96540.78;5107221;28;19978;-49
2022/08/02 01:43:43;;;;;;;;;;;;;;;22.08;100.00;96545.31;5105884;28;19974;-45
2022/08/02 01:46:13;;;;;;;;;;;;;;;21.54;100.00;96550.13;5106393;28;19967;-50
2022/08/02 01:48:41;;;;;;;;;;;;;;;21.69;100.00;96538.28;5106662;28;19966;-49
2022/08/02 01:51:11;;;;;;;;;;;;;;;21.51;100.00;96534.44;5106168;28;19973;-50
2022/08/02 01:53:39;;;;;;;;;;;;;;;21.86;100.00;96526.03;5106410;28;19963;-50
2022/08/02 01:56:07;;;;;;;;;;;;;;;21.76;100.00;96528.34;5106105;28;19982;-54
2022/08/02 01:58:36;;;;;;;;;;;;;;;22.04;100.00;96526.13;5107043;28;19978;-52
2022/08/02 02:01:04;;;;;;;;;;;;;;;21.55;100.00;96529.47;5104804;28;20395;-48
2022/08/02 02:03:33;;;;;;;;;;;;;;;21.52;100.00;96519.97;5106626;28;19970;-49
2022/08/02 02:06:08;;;;;;;;;;;;;;;21.80;100.00;96524.19;5109412;28;20359;-47
2022/08/02 02:08:38;;;;;;;;;;;;;;;22.00;100.00;96524.91;5111417;28;19966;-49
2022/08/02 02:11:06;;;;;;;;;;;;;;;21.98;100.00;96524.28;5107831;28;19959;-55
2022/08/02 02:13:54;;;;;;;;;;;;;;;22.17;100.00;96527.13;5105807;27;19963;-53
2022/08/02 02:16:23;;;;;;;;;;;;;;;21.92;100.00;96518.97;5112407;27;20364;-46
2022/08/02 02:18:52;;;;;;;;;;;;;;;21.97;100.00;96529.91;5107499;27;19975;-48
2022/08/02 02:21:20;;;;;;;;;;;;;;;22.14;100.00;96533.72;5104916;27;19970;-55
2022/08/02 02:23:48;;;;;;;;;;;;;;;22.05;100.00;96530.44;5111159;27;20361;-52
2022/08/02 02:26:17;;;;;;;;;;;;;;;21.64;100.00;96536.22;5109142;27;19963;-46
2022/08/02 02:28:58;;;;;;;;;;;;;;;21.98;100.00;96537.72;5106989;27;19966;-46
2022/08/02 02:31:26;;;;;;;;;;;;;;;21.61;100.00;96528.63;5106544;27;19997;-46
2022/08/02 02:33:57;;;;;;;;;;;;;;;22.18;100.00;96531.47;5105639;27;19959;-53
2022/08/02 02:36:25;;;;;;;;;;;;;;;22.09;100.00;96530.03;5112252;28;19963;-54
2022/08/02 02:38:53;;;;;;;;;;;;;;;21.54;100.00;96527.78;5109217;27;20320;-52
2022/08/02 02:41:22;;;;;;;;;;;;;;;21.76;100.00;96531.03;5110322;27;20053;-48
2022/08/02 02:43:50;;;;;;;;;;;;;;;21.49;100.00;96535.69;5107290;27;19994;-61
2022/08/02 02:46:20;;;;;;;;;;;;;;;22.12;100.00;96518.84;5109214;27;19959;-48
2022/08/02 02:48:48;;;;;;;;;;;;;;;22.24;100.00;96530.59;5106792;27;19967;-48
2022/08/02 02:51:17;;;;;;;;;;;;;;;22.16;100.00;96531.69;5111774;27;19962;-49
2022/08/02 02:53:47;;;;;;;;;;;;;;;21.96;100.00;96533.63;5110130;27;20437;-51
2022/08/02 02:56:35;;;;;;;;;;;;;;;21.91;100.00;96531.56;5110609;27;20390;-51
2022/08/02 02:59:03;;;;;;;;;;;;;;;22.08;100.00;96528.38;5106269;27;19959;-50
2022/08/02 03:01:31;;;;;;;;;;;;;;;22.05;100.00;96535.00;5111830;27;19959;-49
2022/08/02 03:04:19;;;;;;;;;;;;;;;21.86;100.00;96536.78;5110844;27;19958;-49
2022/08/02 03:06:49;;;;;;;;;;;;;;;22.27;100.00;96535.56;5109953;27;19982;-50
2022/08/02 03:09:17;;;;;;;;;;;;;;;22.13;100.00;96531.28;5116905;27;20424;-54
2022/08/02 03:11:45;;;;;;;;;;;;;;;21.97;100.00;96529.91;5105831;27;19990;-54
2022/08/02 03:14:13;;;;;;;;;;;;;;;21.96;100.00;96534.44;5107534;27;19963;-48
2022/08/02 03:16:44;;;;;;;;;;;;;;;21.95;100.00;96535.47;5103164;27;19947;-47
2022/08/02 03:19:12;;;;;;;;;;;;;;;21.84;100.00;96536.16;5106368;28;19966;-46
2022/08/02 03:21:41;;;;;;;;;;;;;;;22.07;100.00;96538.31;5103687;28;19952;-48
2022/08/02 03:24:10;;;;;;;;;;;;;;;21.71;100.00;96553.16;5108011;28;19978;-48
2022/08/02 03:26:38;;;;;;;;;;;;;;;22.10;100.00;96550.50;5107328;28;19974;-49
2022/08/02 03:29:07;;;;;;;;;;;;;;;22.30;100.00;96551.25;5102880;28;20396;-52
2022/08/02 03:31:39;;;;;;;;;;;;;;;22.45;100.00;96556.31;5105137;27;19961;-45
2022/08/02 03:34:07;;;;;;;;;;;;;;;22.52;100.00;96557.91;5105164;27;19983;-48
2022/08/02 03:36:35;;;;;;;;;;;;;;;22.57;100.00;96557.22;5102030;27;19967;-50
2022/08/02 03:39:03;;;;;;;;;;;;;;;22.59;100.00;96557.84;5104156;27;20415;-50
2022/08/02 03:41:33;;;;;;;;;;;;;;;22.54;100.00;96554.16;5107053;27;19962;-52
2022/08/02 03:44:01;;;;;;;;;;;;;;;22.57;100.00;96551.03;5107736;28;19951;-47
2022/08/02 03:46:29;;;;;;;;;;;;;;;22.44;100.00;96550.09;5106701;27;19959;-52
2022/08/02 03:48:57;;;;;;;;;;;;;;;22.01;100.00;96557.97;5105990;28;19963;-57
2022/08/02 03:51:25;;;;;;;;;;;;;;;22.30;100.00;96551.25;5102846;27;19963;-54
2022/08/02 03:53:53;;;;;;;;;;;;;;;22.10;100.00;96547.81;5108424;27;19974;-52
2022/08/02 03:56:21;;;;;;;;;;;;;;;22.20;100.00;96549.03;5100842;27;19955;-57
2022/08/02 03:58:52;;;;;;;;;;;;;;;22.47;100.00;96555.06;5105204;28;19955;-46
2022/08/02 04:01:20;;;;;;;;;;;;;;;22.45;100.00;96559.00;5108940;28;19970;-48
2022/08/02 04:03:48;;;;;;;;;;;;;;;22.52;100.00;96555.22;5106988;28;19974;-48
2022/08/02 04:06:16;;;;;;;;;;;;;;;22.50;100.00;96559.16;5111647;28;19977;-51
2022/08/02 04:08:54;;;;;;;;;;;;;;;22.55;100.00;96562.03;5111455;28;20386;-45
2022/08/02 04:11:30;;;;;;;;;;;;;;;22.38;100.00;96575.16;5110998;28;19967;-50
2022/08/02 04:14:01;;;;;;;;;;;;;;;22.50;100.00;96569.91;5111247;28;20322;-52
2022/08/02 04:16:30;;;;;;;;;;;;;;;22.52;100.00;96570.50;5113322;27;20411;-50
2022/08/02 04:18:58;;;;;;;;;;;;;;;22.61;100.00;96576.44;5111361;28;20009;-48
2022/08/02 04:21:26;;;;;;;;;;;;;;;22.60;100.00;96577.50;5110574;28;19974;-44
2022/08/02 04:24:15;;;;;;;;;;;;;;;22.86;100.00;96577.28;5111189;27;19971;-52
2022/08/02 04:26:46;;;;;;;;;;;;;;;23.01;100.00;96574.28;5109112;28;19971;-50
2022/08/02 04:29:18;;;;;;;;;;;;;;;22.88;100.00;96574.38;5110547;28;20409;-56
2022/08/02 04:31:46;;;;;;;;;;;;;;;23.17;100.00;96575.63;5110709;28;19955;-50
2022/08/02 04:34:14;;;;;;;;;;;;;;;23.27;100.00;96583.19;5110891;28;19978;-51
2022/08/02 04:36:42;;;;;;;;;;;;;;;23.16;100.00;96585.56;5110902;27;19967;-52
2022/08/02 04:39:10;;;;;;;;;;;;;;;22.94;100.00;96590.50;5110992;27;19975;-47
2022/08/02 04:41:39;;;;;;;;;;;;;;;23.31;100.00;96587.91;5110384;28;19955;-49
2022/08/02 04:44:10;;;;;;;;;;;;;;;22.81;100.00;96595.94;5110726;28;19955;-51
2022/08/02 04:46:40;;;;;;;;;;;;;;;23.06;100.00;96608.63;5110786;28;20373;-50
2022/08/02 04:49:08;;;;;;;;;;;;;;;23.19;100.00;96609.34;5110862;27;19931;-53
2022/08/02 04:51:36;;;;;;;;;;;;;;;23.16;100.00;96606.25;5109075;28;20314;-55
2022/08/02 04:54:05;;;;;;;;;;;;;;;23.10;100.00;96610.66;5111005;28;20603;-46
2022/08/02 04:56:37;;;;;;;;;;;;;;;22.78;100.00;96606.31;5105727;28;20467;-52
2022/08/02 04:59:05;;;;;;;;;;;;;;;23.49;100.00;96608.63;5110297;28;19971;-55
2022/08/02 05:01:34;;;;;;;;;;;;;;;23.57;100.00;96604.81;5109873;28;19955;-53
2022/08/02 05:04:03;;;;;;;;;;;;;;;23.46;100.00;96606.38;5109934;28;20349;-47
2022/08/02 05:06:31;;;;;;;;;;;;;;;23.58;100.00;96604.59;5110352;28;20405;-53
2022/08/02 05:08:59;;;;;;;;;;;;;;;23.81;100.00;96608.53;5107271;28;19982;-52
2022/08/02 05:11:27;;;;;;;;;;;;;;;23.78;100.00;96611.66;5107994;28;19971;-53
2022/08/02 05:14:03;;;;;;;;;;;;;;;23.90;100.00;96608.00;5110366;28;20419;-48
2022/08/02 05:16:31;;;;;;;;;;;;;;;23.95;100.00;96607.34;5111296;27;19974;-52
2022/08/02 05:18:59;;;;;;;;;;;;;;;24.21;100.00;96592.69;5103633;28;19993;-52
2022/08/02 05:21:30;;;;;;;;;;;;;;;24.07;100.00;96589.34;5102167;28;19986;-45
2022/08/02 05:23:58;;;;;;;;;;;;;;;23.63;100.00;96595.84;5102838;28;19967;-50
2022/08/02 05:26:26;;;;;;;;;;;;;;;24.20;100.00;96598.31;5110248;28;20481;-46
2022/08/02 05:28:54;;;;;;;;;;;;;;;24.60;100.00;96598.59;5103884;28;19967;-57
2022/08/02 05:31:22;;;;;;;;;;;;;;;24.47;100.00;96598.81;5109169;28;19959;-51
2022/08/02 05:33:50;;;;;;;;;;;;;;;24.31;100.00;96601.06;5110120;28;19966;-50
2022/08/02 05:36:18;;;;;;;;;;;;;;;24.48;100.00;96603.97;5110246;28;19955;-49
2022/08/02 05:38:50;;;;;;;;;;;;;;;24.21;100.00;96603.47;5109687;28;20032;-47
2022/08/02 05:41:19;;;;;;;;;;;;;;;24.75;100.00;96609.81;5109763;28;19981;-48
2022/08/02 05:43:47;;;;;;;;;;;;;;;24.24;100.00;96611.09;5109613;28;19970;-48
2022/08/02 05:46:15;;;;;;;;;;;;;;;24.31;100.00;96605.63;5110176;28;20378;-51
2022/08/02 05:48:44;;;;;;;;;;;;;;;23.94;100.00;96611.06;5110050;28;19970;-46
2022/08/02 05:51:13;;;;;;;;;;;;;;;24.28;100.00;96609.59;5109679;28;20361;-49
2022/08/02 05:53:45;;;;;;;;;;;;;;;24.50;100.00;96603.72;5109158;28;19974;-48
2022/08/02 05:56:19;;;;;;;;;;;;;;;24.03;100.00;96611.59;5109074;28;19977;-53
2022/08/02 05:58:53;;;;;;;;;;;;;;;23.68;100.00;96612.19;5110496;28;20339;-50
2022/08/02 06:01:23;;;;;;;;;;;;;;;23.33;100.00;96620.81;5109411;28;19947;-48
2022/08/02 06:03:52;;;;;;;;;;;;;;;23.64;100.00;96621.72;5109810;28;19978;-46
2022/08/02 06:06:22;;;;;;;;;;;;;;;23.62;100.00;96619.25;5109676;28;20362;-52
2022/08/02 06:08:50;;;;;;;;;;;;;;;23.70;100.00;96612.78;5109734;28;19982;-47
2022/08/02 06:11:21;;;;;;;;;;;;;;;23.48;100.00;96617.75;5109457;28;19970;-46
2022/08/02 06:13:49;;;;;;;;;;;;;;;23.85;100.00;96615.13;5109824;28;19955;-53
2022/08/02 06:16:17;;;;;;;;;;;;;;;23.95;100.00;96612.72;5109965;28;19966;-51
2022/08/02 06:18:59;;;;;;;;;;;;;;;24.41;100.00;96618.59;5103538;28;19966;-50
2022/08/02 06:21:28;;;;;;;;;;;;;;;24.47;100.00;96623.09;5109246;28;19997;-49
2022/08/02 06:24:18;;;;;;;;;;;;;;;23.62;100.00;96629.22;5105017;28;19931;-48
2022/08/02 06:26:51;;;;;;;;;;;;;;;24.91;100.00;96620.97;5109553;28;19974;-49
2022/08/02 06:29:19;;;;;;;;;;;;;;;24.82;100.00;96610.53;5109603;28;19986;-50
2022/08/02 06:31:50;;;;;;;;;;;;;;;24.89;100.00;96606.91;5108828;28;19974;-53
2022/08/02 06:34:18;;;;;;;;;;;;;;;25.13;100.00;96613.19;5109360;28;19985;-47
2022/08/02 06:36:49;;;;;;;;;;;;;;;25.02;100.00;96614.78;5109548;28;19951;-56
2022/08/02 06:39:19;;;;;;;;;;;;;;;24.74;100.00;96613.56;5109211;28;19967;-47
2022/08/02 06:41:49;;;;;;;;;;;;;;;25.24;100.00;96596.19;5108483;28;19959;-51
2022/08/02 06:44:36;;;;;;;;;;;;;;;25.20;100.00;96603.94;5109876;28;19974;-48
2022/08/02 06:47:18;;;;;;;;;;;;;;;24.94;100.00;96604.31;5108965;28;19966;-49
2022/08/02 06:49:46;;;;;;;;;;;;;;;25.13;100.00;96611.31;5109453;28;20345;-47
2022/08/02 06:52:21;;;;;;;;;;;;;;;24.85;100.00;96604.66;5112126;28;19966;-48
2022/08/02 06:54:55;;;;;;;;;;;;;;;25.33;100.00;96605.59;5113270;28;19959;-51
2022/08/02 06:57:25;;;;;;;;;;;;;;;25.73;100.00;96602.94;5112697;27;19982;-52
2022/08/02 06:59:53;;;;;;;;;;;;;;;25.63;100.00;96605.44;5112803;28;20374;-49
2022/08/02 07:02:21;;;;;;;;;;;;;;;25.74;100.00;96607.31;5107130;28;20376;-51
2022/08/02 07:04:49;;;;;;;;;;;;;;;25.31;100.00;96608.50;5112869;27;19959;-47
2022/08/02 07:07:17;;;;;;;;;;;;;;;25.42;100.00;96614.97;5112703;28;19963;-49
2022/08/02 07:09:45;;;;;;;;;;;;;;;25.82;100.00;96602.63;5112799;28;19967;-46
2022/08/02 07:12:30;;;;;;;;;;;;;;;26.24;100.00;96611.34;5112115;28;19959;-46
2022/08/02 07:14:58;;;;;;;;;;;;;;;25.38;100.00;96610.28;5112920;28;19967;-49
2022/08/02 07:17:26;;;;;;;;;;;;;;;25.70;100.00;96610.72;5113388;27;19962;-51
2022/08/02 07:19:54;;;;;;;;;;;;;;;25.94;100.00;96615.03;5111416;28;19959;-50
2022/08/02 07:22:23;;;;;;;;;;;;;;;25.53;100.00;96610.59;5112042;28;19959;-49
2022/08/02 07:24:51;;;;;;;;;;;;;;;25.93;100.00;96618.81;5112618;28;19967;-52
2022/08/02 07:27:19;;;;;;;;;;;;;;;26.10;100.00;96612.69;5112235;28;19978;-51
2022/08/02 07:29:49;;;;;;;;;;;;;;;26.65;100.00;96607.53;5111859;28;20353;-53
2022/08/02 07:32:17;;;;;;;;;;;;;;;25.70;100.00;96619.63;5111739;28;19959;-46
2022/08/02 07:34:46;;;;;;;;;;;;;;;26.08;100.00;96612.91;5112329;28;19954;-46
2022/08/02 07:37:19;;;;;;;;;;;;;;;25.87;100.00;96618.94;5111866;28;19983;-47
2022/08/02 07:40:07;;;;;;;;;;;;;;;26.72;100.00;96604.69;5112181;27;19967;-55
2022/08/02 07:42:42;;;;;;;;;;;;;;;27.35;100.00;96608.19;5105416;28;20537;-51
2022/08/02 07:45:29;;;;;;;;;;;;;;;27.58;100.00;96609.88;5112102;28;19930;-50
2022/08/02 07:47:57;;;;;;;;;;;;;;;26.26;100.00;96609.22;5112231;28;19996;-48
2022/08/02 07:50:27;;;;;;;;;;;;;;;27.74;100.00;96600.91;5112276;28;19951;-51
2022/08/02 07:52:55;;;;;;;;;;;;;;;28.17;100.00;96599.31;5111557;28;19963;-53
2022/08/02 07:55:25;;;;;;;;;;;;;;;28.49;100.00;96595.88;5112764;27;19969;-54
2022/08/02 07:58:08;;;;;;;;;;;;;;;28.48;100.00;96591.53;5111749;28;19955;-56
2022/08/02 08:00:43;;;;;;;;;;;;;;;28.84;100.00;96592.72;5111620;28;19978;-55
2022/08/02 08:03:11;;;;;;;;;;;;;;;27.77;100.00;96591.47;5106126;28;19970;-51
2022/08/02 08:05:39;;;;;;;;;;;;;;;28.12;100.00;96588.41;5105519;28;19971;-54
2022/08/02 08:08:07;;;;;;;;;;;;;;;28.70;100.00;96586.91;5107211;28;20409;-60
2022/08/02 08:10:42;;;;;;;;;;;;;;;28.22;100.00;96587.69;5111866;28;19959;-53
2022/08/02 08:13:10;;;;;;;;;;;;;;;29.06;100.00;96588.03;5104520;28;19967;-56
2022/08/02 08:15:38;;;;;;;;;;;;;;;27.97;100.00;96591.72;5108842;28;19960;-58
2022/08/02 08:18:07;;;;;;;;;;;;;;;28.58;100.00;96587.03;5116974;27;19966;-51
2022/08/02 08:20:38;;;;;;;;;;;;;;;28.54;100.00;96595.94;5111378;28;20358;-46
2022/08/02 08:23:06;;;;;;;;;;;;;;;28.42;100.00;96596.09;5110500;28;19955;-52
2022/08/02 08:25:34;;;;;;;;;;;;;;;28.60;100.00;96587.59;5111147;28;19982;-50
2022/08/02 08:28:08;;;;;;;;;;;;;;;28.70;100.00;96588.75;5111015;28;19967;-53
2022/08/02 08:30:36;;;;;;;;;;;;;;;28.46;100.00;96589.09;5111015;28;19963;-48
2022/08/02 08:33:04;;;;;;;;;;;;;;;28.30;100.00;96584.53;5111279;28;19959;-54
2022/08/02 08:35:33;;;;;;;;;;;;;;;28.95;100.00;96580.06;5111294;28;20002;-52
2022/08/02 08:38:02;;;;;;;;;;;;;;;29.43;100.00;96586.41;5111007;28;19977;-53
2022/08/02 08:40:35;;;;;;;;;;;;;;;28.97;100.00;96577.88;5106085;28;19971;-52
2022/08/02 08:43:04;;;;;;;;;;;;;;;29.57;91.25;96590.31;5109598;28;19974;-52
2022/08/02 08:45:32;;;;;;;;;;;;;;;29.12;100.00;96578.06;5110210;28;19971;-47
2022/08/02 08:48:00;;;;;;;;;;;;;;;29.31;100.00;96575.72;5110877;28;19971;-50
2022/08/02 08:50:30;;;;;;;;;;;;;;;30.05;89.30;96582.97;5110657;28;19978;-47
2022/08/02 08:53:02;;;;;;;;;;;;;;;29.58;99.41;96576.44;5110298;28;19959;-54
2022/08/02 08:55:30;;;;;;;;;;;;;;;29.81;89.70;96579.88;5106370;28;19982;-50
2022/08/02 08:57:59;;;;;;;;;;;;;;;30.16;86.70;96587.34;5110743;28;19966;-46
2022/08/02 09:00:27;;;;;;;;;;;;;;;29.43;96.37;96581.81;5110441;27;19955;-53
2022/08/02 09:02:55;;;;;;;;;;;;;;;29.50;88.77;96573.41;5110291;28;19967;-55
2022/08/02 09:05:24;;;;;;;;;;;;;;;29.44;90.25;96583.44;5110041;28;19924;-55
2022/08/02 09:07:52;;;;;;;;;;;;;;;29.87;88.16;96583.41;5108207;28;19959;-51
2022/08/02 09:10:35;;;;;;;;;;;;;;;30.31;83.45;96581.19;5109595;28;19963;-50
2022/08/02 09:13:06;;;;;;;;;;;;;;;29.58;80.09;96576.44;5109455;28;19976;-52
2022/08/02 09:15:55;;;;;;;;;;;;;;;29.99;80.49;96584.03;5110549;28;19967;-54
2022/08/02 09:18:29;;;;;;;;;;;;;;;30.35;74.62;96582.31;5112807;27;19955;-50
2022/08/02 09:20:58;;;;;;;;;;;;;;;29.86;81.25;96582.59;5109971;28;19958;-51
2022/08/02 09:23:34;;;;;;;;;;;;;;;30.47;72.17;96585.56;5108581;28;19963;-56
2022/08/02 09:26:04;;;;;;;;;;;;;;;29.64;82.06;96587.41;5110040;28;19955;-58
2022/08/02 09:28:35;;;;;;;;;;;;;;;29.97;76.02;96589.75;5110479;28;20569;-57
2022/08/02 09:31:04;;;;;;;;;;;;;;;30.36;73.87;96597.53;5110329;28;19951;-51
2022/08/02 09:33:32;;;;;;;;;;;;;;;30.65;71.08;96591.59;5109434;28;19924;-51
2022/08/02 09:36:01;;;;;;;;;;;;;;;30.76;65.55;96587.84;5110188;28;20373;-50
2022/08/02 09:38:35;;;;;;;;;;;;;;;31.27;63.06;96590.56;5102909;28;19959;-52
2022/08/02 09:41:04;;;;;;;;;;;;;;;30.45;65.20;96582.28;5109757;28;19963;-51
2022/08/02 09:43:36;;;;;;;;;;;;;;;28.94;82.00;96600.13;5109082;28;19955;-48
2022/08/02 09:46:19;;;;;;;;;;;;;;;29.02;82.29;96602.41;5110312;28;20652;-48
2022/08/02 09:48:52;;;;;;;;;;;;;;;29.05;82.40;96591.84;5109878;28;19959;-52
2022/08/02 09:51:20;;;;;;;;;;;;;;;30.12;76.37;96594.41;5109486;28;19951;-48
2022/08/02 09:53:49;;;;;;;;;;;;;;;30.46;64.38;96589.41;5108864;28;19962;-48
2022/08/02 09:56:43;;;;;;;;;;;;;;;30.87;63.77;96580.50;5104368;28;19971;-52
2022/08/02 09:59:11;;;;;;;;;;;;;;;31.16;59.06;96578.88;5109773;28;20417;-52
2022/08/02 10:01:40;;;;;;;;;;;;;;;31.38;60.11;96577.78;5109281;28;19966;-48
2022/08/02 10:04:20;;;;;;;;;;;;;;;31.08;61.37;96579.44;5109248;28;19955;-54
2022/08/02 10:06:50;;;;;;;;;;;;;;;30.58;61.92;96585.59;5110260;28;19985;-49
2022/08/02 10:09:18;;;;;;;;;;;;;;;31.08;55.76;96576.69;5106003;28;20060;-48
2022/08/02 10:11:47;;;;;;;;;;;;;;;29.83;60.07;96582.31;5109513;28;19931;-52
2022/08/02 10:14:17;;;;;;;;;;;;;;;30.01;65.43;96585.41;5109386;28;19966;-53
2022/08/02 10:16:45;;;;;;;;;;;;;;;30.74;66.16;96579.91;5114317;28;19979;-53
2022/08/02 10:19:13;;;;;;;;;;;;;;;31.36;58.10;96572.63;5106168;28;20456;-48
2022/08/02 10:21:43;;;;;;;;;;;;;;;31.24;58.08;96576.69;5109275;28;19962;-45
2022/08/02 10:24:14;;;;;;;;;;;;;;;31.11;53.01;96570.72;5109441;28;19958;-52
2022/08/02 10:26:43;;;;;;;;;;;;;;;31.56;52.34;96576.41;5113537;28;19971;-47
2022/08/02 10:29:14;;;;;;;;;;;;;;;31.41;48.35;96569.88;5113023;27;19982;-51
2022/08/02 10:31:43;;;;;;;;;;;;;;;31.73;47.62;96566.00;5113346;28;20002;-46
2022/08/02 10:34:12;;;;;;;;;;;;;;;31.99;47.83;96565.94;5110459;28;19975;-47
2022/08/02 10:36:41;;;;;;;;;;;;;;;32.08;49.12;96570.53;5112175;28;19970;-53
2022/08/02 10:39:09;;;;;;;;;;;;;;;31.08;59.94;96573.97;5108424;28;19967;-48
2022/08/02 10:41:41;;;;;;;;;;;;;;;31.65;60.75;96563.81;5105319;28;20005;-59
2022/08/02 10:44:09;;;;;;;;;;;;;;;31.83;55.45;96557.78;5108005;28;19962;-51
2022/08/02 10:46:53;;;;;;;;;;;;;;;31.32;52.08;96565.28;5110497;27;19979;-46
2022/08/02 10:49:21;;;;;;;;;;;;;;;31.84;56.90;96556.69;5112756;28;19971;-53
2022/08/02 10:52:08;;;;;;;;;;;;;;;31.73;55.07;96555.09;5111519;28;19959;-58
2022/08/02 10:54:37;;;;;;;;;;;;;;;31.56;56.01;96554.59;5112988;28;20302;-48
2022/08/02 10:57:14;;;;;;;;;;;;;;;31.11;59.36;96550.78;5112929;28;19962;-46
2022/08/02 10:59:43;;;;;;;;;;;;;;;30.80;59.07;96547.25;5111470;28;20438;-46
2022/08/02 11:02:12;;;;;;;;;;;;;;;30.89;56.98;96551.91;5112303;28;20353;-49
2022/08/02 11:04:58;;;;;;;;;;;;;;;31.76;51.59;96545.53;5111417;27;19955;-46
2022/08/02 11:07:31;;;;;;;;;;;;;;;31.79;50.88;96543.06;5102554;28;20386;-52
2022/08/02 11:09:59;;;;;;;;;;;;;;;32.05;50.75;96540.25;5110187;28;19967;-50
2022/08/02 11:12:27;;;;;;;;;;;;;;;31.77;52.28;96536.25;5112269;28;19966;-51
2022/08/02 11:14:58;;;;;;;;;;;;;;;31.30;53.54;96535.53;5112022;28;19974;-50
2022/08/02 11:17:28;;;;;;;;;;;;;;;31.10;52.68;96530.91;5116530;27;19924;-48
2022/08/02 11:20:23;;;;;;;;;;;;;;;31.55;49.99;96521.03;5111987;28;19977;-51
2022/08/02 11:22:52;;;;;;;;;;;;;;;31.48;49.80;96519.72;5106985;28;20369;-48
2022/08/02 11:25:35;;;;;;;;;;;;;;;32.48;49.72;96516.03;5112461;28;19973;-48
2022/08/02 11:28:23;;;;;;;;;;;;;;;32.44;46.52;96507.59;5105076;28;20409;-45
2022/08/02 11:30:59;;;;;;;;;;;;;;;32.05;46.87;96507.53;5105501;28;19962;-53
2022/08/02 11:33:32;;;;;;;;;;;;;;;31.80;46.78;96513.88;5108067;28;19966;-47
2022/08/02 11:36:01;;;;;;;;;;;;;;;31.85;46.38;96511.13;5111969;28;19962;-51
2022/08/02 11:38:29;;;;;;;;;;;;;;;32.20;46.08;96510.16;5112096;28;20689;-49
2022/08/02 11:40:57;;;;;;;;;;;;;;;32.24;45.21;96502.22;5111998;28;19970;-48
2022/08/02 11:43:26;;;;;;;;;;;;;;;31.72;47.14;96506.28;5111388;27;19971;-52
2022/08/02 11:45:55;;;;;;;;;;;;;;;32.42;45.74;96514.41;5112359;27;19967;-55
2022/08/02 11:48:29;;;;;;;;;;;;;;;32.44;45.31;96501.31;5111883;28;19963;-49
2022/08/02 11:51:09;;;;;;;;;;;;;;;31.44;43.83;96512.09;5111878;28;19955;-49
2022/08/02 11:53:47;;;;;;;;;;;;;;;32.38;42.78;96508.69;5111238;28;19982;-52
2022/08/02 11:56:15;;;;;;;;;;;;;;;32.44;42.72;96512.22;5111802;28;20350;-56
2022/08/02 11:59:02;;;;;;;;;;;;;;;32.82;41.06;96516.03;5105860;28;19955;-50
2022/08/02 12:01:30;;;;;;;;;;;;;;;33.59;39.79;96516.19;5108212;28;19982;-54
2022/08/02 12:04:02;;;;;;;;;;;;;;;34.05;38.73;96507.44;5108582;28;19971;-49
2022/08/02 12:06:31;;;;;;;;;;;;;;;34.55;39.56;96504.28;5111793;28;19973;-55
2022/08/02 12:09:03;;;;;;;;;;;;;;;34.07;39.96;96504.38;5111421;28;19966;-54
2022/08/02 12:11:31;;;;;;;;;;;;;;;34.77;37.67;96498.19;5105834;28;19982;-50
2022/08/02 12:14:06;;;;;;;;;;;;;;;34.48;39.68;96507.34;5111131;28;19951;-57
2022/08/02 12:19:22;;;;;;;;;;;;;;;33.68;40.56;96508.13;5105138;28;19985;-55
2022/08/02 12:22:05;;;;;;;;;;;;;;;33.91;39.28;96509.22;5111208;28;20365;-54
2022/08/02 12:24:34;;;;;;;;;;;;;;;33.31;40.42;96507.69;5111066;28;20009;-53
2022/08/02 12:27:02;;;;;;;;;;;;;;;33.38;41.84;96504.63;5107072;28;19963;-46
2022/08/02 12:29:31;;;;;;;;;;;;;;;33.57;41.24;96498.44;5110536;28;20145;-55
2022/08/02 12:32:23;;;;;;;;;;;;;;;33.71;40.93;96496.63;5110798;28;20006;-49
2022/08/02 12:35:00;;;;;;;;;;;;;;;33.57;38.64;96493.78;5110715;28;19959;-50
2022/08/02 12:37:28;;;;;;;;;;;;;;;33.64;38.54;96498.91;5110577;28;19971;-51
2022/08/02 12:39:58;;;;;;;;;;;;;;;33.89;37.91;96497.75;5107280;28;19970;-50
2022/08/02 12:42:26;;;;;;;;;;;;;;;33.85;38.30;96486.59;5110509;28;19978;-52
2022/08/02 12:44:54;;;;;;;;;;;;;;;33.49;37.98;96487.03;5110799;28;20427;-55
2022/08/02 12:47:22;;;;;;;;;;;;;;;33.54;38.61;96480.69;5110481;28;20465;-48
2022/08/02 12:50:10;;;;;;;;;;;;;;;33.83;38.43;96479.78;5110461;28;19967;-52
2022/08/02 12:52:38;;;;;;;;;;;;;;;33.99;37.38;96473.81;5110207;28;20029;-52
2022/08/02 12:55:25;;;;;;;;;;;;;;;34.11;38.16;96467.94;5110757;28;19977;-60
2022/08/02 12:58:13;;;;;;;;;;;;;;;33.67;37.48;96471.78;5106107;28;20377;-46
2022/08/02 13:00:51;;;;;;;;;;;;;;;33.92;37.48;96467.06;5109141;28;19997;-57
2022/08/02 13:03:20;;;;;;;;;;;;;;;33.93;37.47;96474.16;5108756;28;19967;-54